Arethusa — 9HJR9 — position and weather

sailwx.info

Track history (hours):
 
Tides and Currents Weather Stations Pressure Air Temp Water Temp Dewpoint Dewpoint Depression Visibility Wind Speed Wind Dir Waves Ship Positions

Arethusa

Last reported at 2014-Jul-23 01:33 UTC. Time now 2014-Jul-23 01:46 UTC.
Position N 44°03' E 009°51'.

Length 60 m; draft 3 m.

Type: Passenger vessel. MMSI: 249069000.

Date/timePositionNaut miles runAvg speedWind from/ knotsBaromVisibWave heightAir tempDewpointWater temp
2014-Jul-23 01:33N 44°03' E 009°51'0 0.0
2014-Jul-23 00:33N 44°03' E 009°51'0 0.0
2014-Jul-22 23:33N 44°03' E 009°51'0 0.0
2014-Jul-22 22:33N 44°03' E 009°51'3 3.4
2014-Jul-22 21:33N 43°60' E 009°50'9 9.0
2014-Jul-22 20:33N 44°03' E 009°38'10 9.7
2014-Jul-22 19:33N 44°10' E 009°28'1010.0
2014-Jul-22 18:33N 44°17' E 009°18'2 0.1
2014-Jul-22 04:33N 44°16' E 009°16'10 9.7
2014-Jul-22 03:33N 44°11' E 009°04'10 9.8
2014-Jul-22 02:33N 44°07' E 008°52'10 9.5
2014-Jul-22 01:33N 44°02' E 008°40'10 9.1
2014-Jul-22 00:31N 43°58' E 008°28'51 8.5
2014-Jul-21 18:32N 43°41' E 007°22'4 3.4
2014-Jul-21 17:29N 43°42' E 007°17'0 0.0
2014-Jul-21 16:23N 43°42' E 007°17'0 0.0
2014-Jul-21 15:29N 43°42' E 007°17'0 0.0
2014-Jul-21 14:29N 43°42' E 007°17'0 0.0
2014-Jul-21 13:29N 43°42' E 007°17'0 0.0
2014-Jul-21 11:29N 43°42' E 007°17'0 0.0
2014-Jul-21 10:29N 43°42' E 007°17'0 0.0
2014-Jul-21 09:29N 43°42' E 007°17'0 0.0
2014-Jul-21 08:29N 43°42' E 007°17'0 0.0
2014-Jul-21 07:29N 43°42' E 007°17'0 0.0
2014-Jul-21 06:29N 43°42' E 007°17'0 0.0
2014-Jul-21 05:23N 43°42' E 007°17'0 0.0
2014-Jul-21 04:29N 43°42' E 007°17'0 0.0
2014-Jul-21 03:29N 43°42' E 007°17'0 0.0
2014-Jul-21 02:29N 43°42' E 007°17'0 0.0
2014-Jul-21 01:23N 43°42' E 007°17'0 0.0
2014-Jul-21 00:29N 43°42' E 007°17'0 0.0
2014-Jul-20 23:29N 43°42' E 007°17'0 0.0
2014-Jul-20 22:29N 43°42' E 007°17'0 0.0
2014-Jul-20 21:29N 43°42' E 007°17'0 0.0
2014-Jul-20 20:29N 43°42' E 007°17'0 0.0
2014-Jul-20 19:23N 43°42' E 007°17'0 0.0
2014-Jul-20 18:29N 43°42' E 007°17'0 0.0
2014-Jul-20 17:29N 43°42' E 007°17'0 0.0
2014-Jul-20 16:05N 43°42' E 007°17'0 0.0
2014-Jul-20 15:29N 43°42' E 007°17'0 0.0
2014-Jul-20 14:29N 43°42' E 007°17'0 0.0
2014-Jul-20 13:29N 43°42' E 007°17'0 0.0
2014-Jul-20 12:23N 43°42' E 007°17'0 0.0
2014-Jul-20 11:23N 43°42' E 007°17'0 0.0
2014-Jul-20 02:23N 43°42' E 007°17'0 0.0
2014-Jul-20 01:29N 43°42' E 007°17'0 0.0
2014-Jul-20 00:29N 43°42' E 007°17'0 0.0
2014-Jul-19 23:29N 43°42' E 007°17'0 0.0
2014-Jul-19 22:29N 43°42' E 007°17'0 0.0
2014-Jul-19 21:23N 43°42' E 007°17'0 0.0
2014-Jul-19 20:11N 43°42' E 007°17'0 0.0
2014-Jul-19 18:17N 43°42' E 007°17'0 0.0
2014-Jul-19 17:16N 43°42' E 007°17'0 0.0
2014-Jul-19 16:32N 43°42' E 007°17'0 0.0
2014-Jul-19 15:33N 43°42' E 007°17'0 0.0
2014-Jul-19 14:33N 43°42' E 007°17'0 0.0
2014-Jul-19 13:33N 43°42' E 007°17'0 0.0
2014-Jul-19 12:34N 43°42' E 007°17'0 0.0
2014-Jul-19 11:31N 43°42' E 007°17'0 0.0
2014-Jul-19 10:34N 43°42' E 007°17'0 0.0
2014-Jul-19 09:32N 43°42' E 007°17'0 0.0
2014-Jul-19 08:32N 43°42' E 007°17'0 0.0
2014-Jul-19 07:33N 43°42' E 007°17'0 0.0
2014-Jul-19 06:29N 43°42' E 007°17'0 0.0
2014-Jul-19 05:34N 43°42' E 007°17'5 5.1
2014-Jul-19 04:32N 43°40' E 007°24'11 8.7
2014-Jul-19 03:15N 43°42' E 007°39'710.2
2014-Jul-19 02:33N 43°44' E 007°49'1111.3
2014-Jul-19 01:33N 43°48' E 008°04'1211.6
2014-Jul-19 00:28N 43°54' E 008°18'1010.6
2014-Jul-18 23:33N 43°59' E 008°30'1010.2
2014-Jul-18 22:33N 44°04' E 008°43'10 9.8
2014-Jul-18 21:33N 44°08' E 008°55'9 9.4
2014-Jul-18 20:33N 44°12' E 009°06'10 9.5
2014-Jul-18 19:33N 44°17' E 009°18'0 0.0
2014-Jul-18 04:32N 44°17' E 009°18'10 9.7
2014-Jul-18 03:33N 44°10' E 009°28'10 9.6
2014-Jul-18 02:34N 44°04' E 009°38'9 9.1
2014-Jul-18 01:34N 44°00' E 009°50'3 2.9
2014-Jul-18 00:32N 44°03' E 009°51'0 0.0
2014-Jul-17 23:32N 44°03' E 009°51'0 0.0
2014-Jul-17 22:32N 44°03' E 009°51'0 0.0
2014-Jul-17 21:32N 44°03' E 009°51'0 0.0
2014-Jul-17 20:32N 44°03' E 009°51'0 0.0
2014-Jul-17 19:32N 44°03' E 009°51'0 0.0
2014-Jul-17 18:32N 44°03' E 009°51'0 0.0
2014-Jul-17 17:29N 44°03' E 009°51'0 0.0
2014-Jul-17 16:32N 44°03' E 009°51'0 0.0
2014-Jul-17 15:32N 44°03' E 009°51'0 0.0
2014-Jul-17 14:32N 44°03' E 009°51'0 0.0
2014-Jul-17 13:32N 44°03' E 009°51'0 0.0
2014-Jul-17 12:32N 44°03' E 009°51'0 0.0
2014-Jul-17 11:34N 44°03' E 009°51'0 0.0
2014-Jul-17 10:33N 44°03' E 009°51'0 0.0
2014-Jul-17 09:33N 44°03' E 009°51'0 0.0
2014-Jul-17 08:33N 44°03' E 009°51'0 0.0
2014-Jul-17 07:33N 44°03' E 009°51'0 0.0
2014-Jul-17 06:33N 44°03' E 009°51'0 0.0
2014-Jul-17 05:33N 44°03' E 009°51'7 7.1
2014-Jul-17 04:33N 44°01' E 010°00'2 2.0
2014-Jul-17 03:28N 44°02' E 010°02'0 0.0
2014-Jul-17 02:31N 44°02' E 010°02'0 0.0
2014-Jul-17 01:25N 44°02' E 010°02'0 0.0
2014-Jul-17 00:28N 44°02' E 010°02'0 0.0
2014-Jul-16 23:31N 44°02' E 010°02'0 0.0
2014-Jul-16 22:28N 44°02' E 010°02'0 0.0
2014-Jul-16 21:31N 44°02' E 010°02'0 0.0
2014-Jul-16 20:31N 44°02' E 010°02'0 0.0
2014-Jul-16 19:28N 44°02' E 010°02'0 0.0
2014-Jul-16 18:28N 44°02' E 010°02'0 0.0
2014-Jul-16 17:28N 44°02' E 010°02'0 0.0
2014-Jul-16 16:31N 44°02' E 010°02'0 0.0
2014-Jul-16 15:31N 44°02' E 010°02'0 0.0
2014-Jul-16 14:31N 44°02' E 010°02'0 0.0
2014-Jul-16 13:28N 44°02' E 010°02'0 0.0
2014-Jul-16 12:19N 44°02' E 010°02'0 0.0
2014-Jul-16 11:19N 44°02' E 010°02'0 0.0
2014-Jul-16 10:22N 44°02' E 010°02'0 0.0
2014-Jul-16 09:31N 44°02' E 010°02'0 0.0
2014-Jul-16 08:22N 44°02' E 010°02'0 0.0
2014-Jul-16 07:31N 44°02' E 010°02'0 0.0
2014-Jul-16 06:31N 44°02' E 010°02'0 0.0
2014-Jul-16 05:31N 44°02' E 010°02'2 2.5
2014-Jul-16 04:33N 43°60' E 010°02'1 0.5
2014-Jul-16 03:33N 43°60' E 010°01'10 9.7
2014-Jul-16 02:33N 43°51' E 009°57'10 9.8
2014-Jul-16 01:33N 43°41' E 009°52'10 9.9
2014-Jul-16 00:33N 43°32' E 009°48'1010.2
2014-Jul-15 23:33N 43°22' E 009°44'1010.3
2014-Jul-15 22:33N 43°12' E 009°41'32 2.4
2014-Jul-15 09:18N 42°42' E 009°27'48 1.2
2014-Jul-13 18:10N 43°14' E 010°16'610.5
2014-Jul-13 17:33N 43°21' E 010°14'1010.0
2014-Jul-13 16:33N 43°31' E 010°13'4 4.0
2014-Jul-13 15:26N 43°33' E 010°18'0 0.0
2014-Jul-13 14:32N 43°33' E 010°18'0 0.0
2014-Jul-13 13:34N 43°33' E 010°18'0 0.0
2014-Jul-13 12:33N 43°33' E 010°18'0 0.0
2014-Jul-13 11:34N 43°33' E 010°18'0 0.0
2014-Jul-13 10:34N 43°33' E 010°18'0 0.0
2014-Jul-13 09:33N 43°33' E 010°18'0 0.0
2014-Jul-13 08:33N 43°33' E 010°18'0 0.0
2014-Jul-13 07:33N 43°33' E 010°18'0 0.0
2014-Jul-13 06:33N 43°33' E 010°18'0 0.0
2014-Jul-13 05:33N 43°33' E 010°18'0 0.0
2014-Jul-13 04:33N 43°33' E 010°18'0 0.0
2014-Jul-13 03:33N 43°33' E 010°18'0 0.0
2014-Jul-13 02:34N 43°33' E 010°18'0 0.0
2014-Jul-13 01:33N 43°33' E 010°18'  
Track history (hours):
 
Tides and Currents Weather Stations Pressure Air Temp Water Temp Dewpoint Dewpoint Depression Visibility Wind Speed Wind Dir Waves Ship Positions

Arethusa

Last reported at 2014-Jul-23 01:33 UTC. Time now 2014-Jul-23 01:46 UTC.
Position N 44°03' E 009°51'.

Length 60 m; draft 3 m.

Type: Passenger vessel. MMSI: 249069000.

Date/timePositionNaut miles runAvg speedWind from/ knotsBaromVisibWave heightAir tempDewpointWater temp
2014-Jul-23 01:33N 44°03' E 009°51'0 0.0
2014-Jul-23 00:33N 44°03' E 009°51'0 0.0
2014-Jul-22 23:33N 44°03' E 009°51'0 0.0
2014-Jul-22 22:33N 44°03' E 009°51'3 3.4
2014-Jul-22 21:33N 43°60' E 009°50'9 9.0
2014-Jul-22 20:33N 44°03' E 009°38'10 9.7
2014-Jul-22 19:33N 44°10' E 009°28'1010.0
2014-Jul-22 18:33N 44°17' E 009°18'2 0.1
2014-Jul-22 04:33N 44°16' E 009°16'10 9.7
2014-Jul-22 03:33N 44°11' E 009°04'10 9.8
2014-Jul-22 02:33N 44°07' E 008°52'10 9.5
2014-Jul-22 01:33N 44°02' E 008°40'10 9.1
2014-Jul-22 00:31N 43°58' E 008°28'51 8.5
2014-Jul-21 18:32N 43°41' E 007°22'4 3.4
2014-Jul-21 17:29N 43°42' E 007°17'0 0.0
2014-Jul-21 16:23N 43°42' E 007°17'0 0.0
2014-Jul-21 15:29N 43°42' E 007°17'0 0.0
2014-Jul-21 14:29N 43°42' E 007°17'0 0.0
2014-Jul-21 13:29N 43°42' E 007°17'0 0.0
2014-Jul-21 11:29N 43°42' E 007°17'0 0.0
2014-Jul-21 10:29N 43°42' E 007°17'0 0.0
2014-Jul-21 09:29N 43°42' E 007°17'0 0.0
2014-Jul-21 08:29N 43°42' E 007°17'0 0.0
2014-Jul-21 07:29N 43°42' E 007°17'0 0.0
2014-Jul-21 06:29N 43°42' E 007°17'0 0.0
2014-Jul-21 05:23N 43°42' E 007°17'0 0.0
2014-Jul-21 04:29N 43°42' E 007°17'0 0.0
2014-Jul-21 03:29N 43°42' E 007°17'0 0.0
2014-Jul-21 02:29N 43°42' E 007°17'0 0.0
2014-Jul-21 01:23N 43°42' E 007°17'0 0.0
2014-Jul-21 00:29N 43°42' E 007°17'0 0.0
2014-Jul-20 23:29N 43°42' E 007°17'0 0.0
2014-Jul-20 22:29N 43°42' E 007°17'0 0.0
2014-Jul-20 21:29N 43°42' E 007°17'0 0.0
2014-Jul-20 20:29N 43°42' E 007°17'0 0.0
2014-Jul-20 19:23N 43°42' E 007°17'0 0.0
2014-Jul-20 18:29N 43°42' E 007°17'0 0.0
2014-Jul-20 17:29N 43°42' E 007°17'0 0.0
2014-Jul-20 16:05N 43°42' E 007°17'0 0.0
2014-Jul-20 15:29N 43°42' E 007°17'0 0.0
2014-Jul-20 14:29N 43°42' E 007°17'0 0.0
2014-Jul-20 13:29N 43°42' E 007°17'0 0.0
2014-Jul-20 12:23N 43°42' E 007°17'0 0.0
2014-Jul-20 11:23N 43°42' E 007°17'0 0.0
2014-Jul-20 02:23N 43°42' E 007°17'0 0.0
2014-Jul-20 01:29N 43°42' E 007°17'0 0.0
2014-Jul-20 00:29N 43°42' E 007°17'0 0.0
2014-Jul-19 23:29N 43°42' E 007°17'0 0.0
2014-Jul-19 22:29N 43°42' E 007°17'0 0.0
2014-Jul-19 21:23N 43°42' E 007°17'0 0.0
2014-Jul-19 20:11N 43°42' E 007°17'0 0.0
2014-Jul-19 18:17N 43°42' E 007°17'0 0.0
2014-Jul-19 17:16N 43°42' E 007°17'0 0.0
2014-Jul-19 16:32N 43°42' E 007°17'0 0.0
2014-Jul-19 15:33N 43°42' E 007°17'0 0.0
2014-Jul-19 14:33N 43°42' E 007°17'0 0.0
2014-Jul-19 13:33N 43°42' E 007°17'0 0.0
2014-Jul-19 12:34N 43°42' E 007°17'0 0.0
2014-Jul-19 11:31N 43°42' E 007°17'0 0.0
2014-Jul-19 10:34N 43°42' E 007°17'0 0.0
2014-Jul-19 09:32N 43°42' E 007°17'0 0.0
2014-Jul-19 08:32N 43°42' E 007°17'0 0.0
2014-Jul-19 07:33N 43°42' E 007°17'0 0.0
2014-Jul-19 06:29N 43°42' E 007°17'0 0.0
2014-Jul-19 05:34N 43°42' E 007°17'5 5.1
2014-Jul-19 04:32N 43°40' E 007°24'11 8.7
2014-Jul-19 03:15N 43°42' E 007°39'710.2
2014-Jul-19 02:33N 43°44' E 007°49'1111.3
2014-Jul-19 01:33N 43°48' E 008°04'1211.6
2014-Jul-19 00:28N 43°54' E 008°18'1010.6
2014-Jul-18 23:33N 43°59' E 008°30'1010.2
2014-Jul-18 22:33N 44°04' E 008°43'10 9.8
2014-Jul-18 21:33N 44°08' E 008°55'9 9.4
2014-Jul-18 20:33N 44°12' E 009°06'10 9.5
2014-Jul-18 19:33N 44°17' E 009°18'0 0.0
2014-Jul-18 04:32N 44°17' E 009°18'10 9.7
2014-Jul-18 03:33N 44°10' E 009°28'10 9.6
2014-Jul-18 02:34N 44°04' E 009°38'9 9.1
2014-Jul-18 01:34N 44°00' E 009°50'3 2.9
2014-Jul-18 00:32N 44°03' E 009°51'0 0.0
2014-Jul-17 23:32N 44°03' E 009°51'0 0.0
2014-Jul-17 22:32N 44°03' E 009°51'0 0.0
2014-Jul-17 21:32N 44°03' E 009°51'0 0.0
2014-Jul-17 20:32N 44°03' E 009°51'0 0.0
2014-Jul-17 19:32N 44°03' E 009°51'0 0.0
2014-Jul-17 18:32N 44°03' E 009°51'0 0.0
2014-Jul-17 17:29N 44°03' E 009°51'0 0.0
2014-Jul-17 16:32N 44°03' E 009°51'0 0.0
2014-Jul-17 15:32N 44°03' E 009°51'0 0.0
2014-Jul-17 14:32N 44°03' E 009°51'0 0.0
2014-Jul-17 13:32N 44°03' E 009°51'0 0.0
2014-Jul-17 12:32N 44°03' E 009°51'0 0.0
2014-Jul-17 11:34N 44°03' E 009°51'0 0.0
2014-Jul-17 10:33N 44°03' E 009°51'0 0.0
2014-Jul-17 09:33N 44°03' E 009°51'0 0.0
2014-Jul-17 08:33N 44°03' E 009°51'0 0.0
2014-Jul-17 07:33N 44°03' E 009°51'0 0.0
2014-Jul-17 06:33N 44°03' E 009°51'0 0.0
2014-Jul-17 05:33N 44°03' E 009°51'7 7.1
2014-Jul-17 04:33N 44°01' E 010°00'2 2.0
2014-Jul-17 03:28N 44°02' E 010°02'0 0.0
2014-Jul-17 02:31N 44°02' E 010°02'0 0.0
2014-Jul-17 01:25N 44°02' E 010°02'0 0.0
2014-Jul-17 00:28N 44°02' E 010°02'0 0.0
2014-Jul-16 23:31N 44°02' E 010°02'0 0.0
2014-Jul-16 22:28N 44°02' E 010°02'0 0.0
2014-Jul-16 21:31N 44°02' E 010°02'0 0.0
2014-Jul-16 20:31N 44°02' E 010°02'0 0.0
2014-Jul-16 19:28N 44°02' E 010°02'0 0.0
2014-Jul-16 18:28N 44°02' E 010°02'0 0.0
2014-Jul-16 17:28N 44°02' E 010°02'0 0.0
2014-Jul-16 16:31N 44°02' E 010°02'0 0.0
2014-Jul-16 15:31N 44°02' E 010°02'0 0.0
2014-Jul-16 14:31N 44°02' E 010°02'0 0.0
2014-Jul-16 13:28N 44°02' E 010°02'0 0.0
2014-Jul-16 12:19N 44°02' E 010°02'0 0.0
2014-Jul-16 11:19N 44°02' E 010°02'0 0.0
2014-Jul-16 10:22N 44°02' E 010°02'0 0.0
2014-Jul-16 09:31N 44°02' E 010°02'0 0.0
2014-Jul-16 08:22N 44°02' E 010°02'0 0.0
2014-Jul-16 07:31N 44°02' E 010°02'0 0.0
2014-Jul-16 06:31N 44°02' E 010°02'0 0.0
2014-Jul-16 05:31N 44°02' E 010°02'2 2.5
2014-Jul-16 04:33N 43°60' E 010°02'1 0.5
2014-Jul-16 03:33N 43°60' E 010°01'10 9.7
2014-Jul-16 02:33N 43°51' E 009°57'10 9.8
2014-Jul-16 01:33N 43°41' E 009°52'10 9.9
2014-Jul-16 00:33N 43°32' E 009°48'1010.2
2014-Jul-15 23:33N 43°22' E 009°44'1010.3
2014-Jul-15 22:33N 43°12' E 009°41'32 2.4
2014-Jul-15 09:18N 42°42' E 009°27'48 1.2
2014-Jul-13 18:10N 43°14' E 010°16'610.5
2014-Jul-13 17:33N 43°21' E 010°14'1010.0
2014-Jul-13 16:33N 43°31' E 010°13'4 4.0
2014-Jul-13 15:26N 43°33' E 010°18'0 0.0
2014-Jul-13 14:32N 43°33' E 010°18'0 0.0
2014-Jul-13 13:34N 43°33' E 010°18'0 0.0
2014-Jul-13 12:33N 43°33' E 010°18'0 0.0
2014-Jul-13 11:34N 43°33' E 010°18'0 0.0
2014-Jul-13 10:34N 43°33' E 010°18'0 0.0
2014-Jul-13 09:33N 43°33' E 010°18'0 0.0
2014-Jul-13 08:33N 43°33' E 010°18'0 0.0
2014-Jul-13 07:33N 43°33' E 010°18'0 0.0
2014-Jul-13 06:33N 43°33' E 010°18'0 0.0
2014-Jul-13 05:33N 43°33' E 010°18'0 0.0
2014-Jul-13 04:33N 43°33' E 010°18'0 0.0
2014-Jul-13 03:33N 43°33' E 010°18'0 0.0
2014-Jul-13 02:34N 43°33' E 010°18'0 0.0
2014-Jul-13 01:33N 43°33' E 010°18'  

Dump ship's entire track history